createdAt,value
2017-11-28T00:02:28.107Z,1.80
2017-11-28T00:04:55.604Z,2.08
2017-11-28T00:07:23.132Z,1.42
2017-11-28T00:09:51.422Z,1.30
2017-11-28T00:12:18.955Z,1.30
2017-11-28T00:14:47.220Z,1.45
2017-11-28T00:17:14.743Z,1.80
2017-11-28T00:19:42.242Z,1.70
2017-11-28T00:22:09.741Z,1.62
2017-11-28T00:24:37.244Z,1.37
2017-11-28T00:27:04.773Z,1.58
2017-11-28T00:29:32.313Z,1.35
2017-11-28T00:31:59.839Z,1.75
2017-11-28T00:34:27.453Z,2.03
2017-11-28T00:36:54.974Z,1.90
2017-11-28T00:39:23.232Z,2.40
2017-11-28T00:41:50.734Z,2.20
2017-11-28T00:44:18.469Z,2.00
2017-11-28T00:46:46.848Z,4.57
2017-11-28T00:49:15.168Z,1.70
2017-11-28T00:51:42.708Z,1.70
2017-11-28T00:54:10.223Z,2.08
2017-11-28T00:56:37.740Z,2.60
2017-11-28T00:59:05.316Z,1.73
2017-11-28T01:01:32.833Z,1.60
2017-11-28T01:04:00.383Z,1.83
2017-11-28T01:06:28.674Z,1.95
2017-11-28T01:08:56.256Z,1.77
2017-11-28T01:11:23.780Z,1.70
2017-11-28T01:13:52.056Z,2.33
2017-11-28T01:16:20.344Z,1.90
2017-11-28T01:18:47.895Z,2.40
2017-11-28T01:21:16.219Z,2.30
2017-11-28T01:23:43.757Z,3.92
2017-11-28T01:26:11.282Z,3.70
2017-11-28T01:28:39.551Z,3.58
2017-11-28T01:31:07.104Z,4.65
2017-11-28T01:33:34.611Z,4.80
2017-11-28T01:36:02.128Z,5.57
2017-11-28T01:38:29.637Z,5.10
2017-11-28T01:40:57.194Z,4.00
2017-11-28T01:43:24.729Z,4.65
2017-11-28T01:45:52.319Z,3.78
2017-11-28T01:48:19.840Z,4.70
2017-11-28T01:50:48.155Z,4.00
2017-11-28T01:53:15.672Z,4.75
2017-11-28T01:55:43.965Z,4.87
2017-11-28T01:58:11.553Z,5.18
2017-11-28T02:00:39.140Z,5.45
2017-11-28T02:03:06.653Z,6.47
2017-11-28T02:05:34.176Z,7.22
2017-11-28T02:08:01.721Z,7.80
2017-11-28T02:10:29.244Z,8.63
2017-11-28T02:12:56.778Z,7.85
2017-11-28T02:15:25.060Z,8.55
2017-11-28T02:17:52.604Z,9.07
2017-11-28T02:20:20.881Z,8.45
2017-11-28T02:22:49.163Z,7.97
2017-11-28T02:25:17.457Z,7.82
2017-11-28T02:27:44.990Z,7.53
2017-11-28T02:30:13.313Z,8.27
2017-11-28T02:32:40.833Z,10.15
2017-11-28T02:35:09.123Z,8.48
2017-11-28T02:37:36.687Z,7.78
2017-11-28T02:40:04.236Z,7.60
2017-11-28T02:42:32.521Z,8.75
2017-11-28T02:45:00.056Z,7.72
2017-11-28T02:47:28.363Z,8.07
2017-11-28T02:50:07.778Z,7.90
2017-11-28T02:52:36.094Z,8.25
2017-11-28T02:55:09.052Z,6.78
2017-11-28T02:57:41.213Z,7.80
2017-11-28T03:00:09.492Z,6.78
2017-11-28T03:02:37.030Z,6.03
2017-11-28T03:05:04.557Z,5.40
2017-11-28T03:07:32.888Z,5.95
2017-11-28T03:10:09.007Z,6.10
2017-11-28T03:12:40.263Z,6.00
2017-11-28T03:15:15.306Z,7.87
2017-11-28T03:17:42.806Z,7.30
2017-11-28T03:20:14.279Z,5.28
2017-11-28T03:22:41.782Z,6.25
2017-11-28T03:25:30.187Z,5.30
2017-11-28T03:28:03.358Z,4.70
2017-11-28T03:30:57.464Z,4.97
2017-11-28T03:33:24.960Z,4.22
2017-11-28T03:35:52.445Z,4.65
2017-11-28T03:38:19.975Z,4.30
2017-11-28T03:40:47.459Z,3.22
2017-11-28T03:43:15.724Z,3.95
2017-11-28T03:45:44.903Z,3.05
2017-11-28T03:48:12.383Z,3.78
2017-11-28T03:50:40.652Z,3.90
2017-11-28T03:53:08.933Z,3.05
2017-11-28T03:55:37.187Z,3.10
2017-11-28T03:58:04.670Z,2.72
2017-11-28T04:00:32.959Z,2.65
2017-11-28T04:03:01.207Z,8.30
2017-11-28T04:05:28.718Z,3.25
2017-11-28T04:07:56.282Z,3.25
2017-11-28T04:10:23.765Z,3.50
2017-11-28T04:12:51.242Z,3.08
2017-11-28T04:15:18.742Z,3.65
2017-11-28T04:17:46.233Z,3.50
2017-11-28T04:20:13.727Z,3.55
2017-11-28T04:22:42.015Z,3.12
2017-11-28T04:25:10.267Z,3.25
2017-11-28T04:27:37.767Z,3.12
2017-11-28T04:30:05.291Z,3.10
2017-11-28T04:32:32.768Z,3.60
2017-11-28T04:35:01.023Z,3.50
2017-11-28T04:37:28.527Z,3.20
2017-11-28T04:39:56.014Z,3.55
2017-11-28T04:42:23.496Z,3.03
2017-11-28T04:44:51.034Z,3.90
2017-11-28T04:47:18.512Z,3.80
2017-11-28T04:49:46.012Z,3.50
2017-11-28T04:52:13.530Z,3.67
2017-11-28T04:54:41.022Z,3.08
2017-11-28T04:57:08.521Z,3.45
2017-11-28T04:59:36.027Z,3.95
2017-11-28T05:02:04.279Z,4.07
2017-11-28T05:04:31.763Z,3.80
2017-11-28T05:07:00.052Z,5.20
2017-11-28T05:09:27.557Z,4.18
2017-11-28T05:11:55.049Z,2.85
2017-11-28T05:14:23.331Z,3.17
2017-11-28T05:16:51.588Z,3.87
2017-11-28T05:19:19.082Z,3.40
2017-11-28T05:21:46.602Z,4.03
2017-11-28T05:24:14.114Z,3.80
2017-11-28T05:26:41.725Z,3.35
2017-11-28T05:29:09.275Z,4.00
2017-11-28T05:31:36.811Z,4.30
2017-11-28T05:34:04.315Z,4.62
2017-11-28T05:36:32.682Z,3.42
2017-11-28T05:39:00.261Z,4.20
2017-11-28T05:41:27.782Z,3.45
2017-11-28T05:43:55.309Z,6.25
2017-11-28T05:46:22.913Z,4.53
2017-11-28T05:48:50.415Z,5.37
2017-11-28T05:51:17.948Z,6.07
2017-11-28T05:53:46.224Z,5.75
2017-11-28T05:56:14.494Z,7.35
2017-11-28T05:58:42.007Z,4.95
2017-11-28T06:01:13.281Z,4.43
2017-11-28T06:03:40.783Z,4.53
2017-11-28T06:06:08.295Z,4.20
2017-11-28T06:08:35.809Z,3.35
2017-11-28T06:11:04.100Z,3.70
2017-11-28T06:13:31.616Z,3.37
2017-11-28T06:15:59.889Z,3.85
2017-11-28T06:18:28.151Z,3.30
2017-11-28T06:20:55.675Z,2.97
2017-11-28T06:23:23.179Z,4.12
2017-11-28T06:25:50.700Z,4.50
2017-11-28T06:28:18.264Z,3.72
2017-11-28T06:30:45.764Z,4.12
2017-11-28T06:33:14.040Z,3.47
2017-11-28T06:35:42.346Z,3.50
2017-11-28T06:38:09.855Z,4.50
2017-11-28T06:40:37.355Z,4.25
2017-11-28T06:43:04.905Z,4.57
2017-11-28T06:45:33.171Z,5.28
2017-11-28T06:48:01.702Z,4.53
2017-11-28T06:50:29.222Z,4.95
2017-11-28T06:52:57.478Z,4.50
2017-11-28T06:55:24.998Z,4.65
2017-11-28T06:57:52.507Z,5.18
2017-11-28T07:00:20.765Z,5.60
2017-11-28T07:02:48.262Z,4.85
2017-11-28T07:05:15.820Z,5.25
2017-11-28T07:07:43.369Z,5.72
2017-11-28T07:10:11.627Z,5.40
2017-11-28T07:12:39.159Z,4.32
2017-11-28T07:15:06.683Z,4.03
2017-11-28T07:17:34.191Z,5.78
2017-11-28T07:20:01.775Z,4.55
2017-11-28T07:22:30.054Z,5.70
2017-11-28T07:24:58.321Z,5.93
2017-11-28T07:27:26.620Z,5.47
2017-11-28T07:29:54.153Z,6.15
2017-11-28T07:32:21.718Z,5.22
2017-11-28T07:34:50.088Z,7.18
2017-11-28T07:37:17.592Z,5.25
2017-11-28T07:39:45.125Z,6.53
2017-11-28T07:42:12.710Z,6.85
2017-11-28T07:44:40.271Z,7.20
2017-11-28T07:47:07.856Z,8.13
2017-11-28T07:49:35.448Z,6.87
2017-11-28T07:52:03.002Z,7.60
2017-11-28T07:54:30.565Z,7.15
2017-11-28T07:56:58.131Z,7.93
2017-11-28T07:59:25.651Z,7.87
2017-11-28T08:01:53.186Z,7.32
2017-11-28T08:04:20.750Z,9.27
2017-11-28T08:06:48.278Z,8.40
2017-11-28T08:09:16.595Z,7.32
2017-11-28T08:11:44.193Z,7.60
2017-11-28T08:14:11.725Z,8.85
2017-11-28T08:16:39.251Z,8.27
2017-11-28T08:19:06.807Z,7.40
2017-11-28T08:21:34.377Z,7.62
2017-11-28T08:24:01.955Z,7.05
2017-11-28T08:26:29.501Z,7.10
2017-11-28T08:28:57.057Z,7.32
2017-11-28T08:31:24.564Z,8.20
2017-11-28T08:33:52.145Z,8.35
2017-11-28T08:36:20.467Z,7.32
2017-11-28T08:38:47.987Z,7.62
2017-11-28T08:41:16.315Z,7.37
2017-11-28T08:43:43.891Z,6.43
2017-11-28T08:46:11.410Z,5.85
2017-11-28T08:48:38.961Z,5.85
2017-11-28T08:51:07.304Z,7.28
2017-11-28T08:53:34.837Z,6.20
2017-11-28T08:56:02.465Z,6.10
2017-11-28T08:58:29.995Z,6.62
2017-11-28T09:00:58.310Z,9.73
2017-11-28T09:03:26.656Z,5.87
2017-11-28T09:05:54.243Z,4.32
2017-11-28T09:08:21.759Z,4.72
2017-11-28T09:10:49.283Z,5.85
2017-11-28T09:13:16.845Z,5.45
2017-11-28T09:15:44.356Z,5.50
2017-11-28T09:18:12.713Z,4.50
2017-11-28T09:20:40.235Z,5.68
2017-11-28T09:23:07.758Z,4.68
2017-11-28T09:25:36.075Z,4.18
2017-11-28T09:28:03.605Z,5.25
2017-11-28T09:30:31.146Z,5.20
2017-11-28T09:32:59.505Z,5.37
2017-11-28T09:35:27.068Z,4.25
2017-11-28T09:37:54.604Z,4.90
2017-11-28T09:40:22.156Z,4.70
2017-11-28T09:42:49.676Z,5.05
2017-11-28T09:45:17.955Z,3.80
2017-11-28T09:47:46.279Z,6.45
2017-11-28T09:50:13.818Z,4.30
2017-11-28T09:52:41.363Z,6.05
2017-11-28T09:55:08.944Z,3.90
2017-11-28T09:57:36.466Z,5.18
2017-11-28T10:00:04.832Z,5.30
2017-11-28T10:02:33.191Z,5.43
2017-11-28T10:05:00.699Z,6.57
2017-11-28T10:07:28.263Z,6.87
2017-11-28T10:09:55.881Z,6.15
2017-11-28T10:12:23.418Z,6.25
2017-11-28T10:14:50.932Z,6.85
2017-11-28T10:17:18.451Z,5.53
2017-11-28T10:19:45.958Z,4.80
2017-11-28T10:22:13.471Z,4.53
2017-11-28T10:24:41.050Z,4.12
2017-11-28T10:27:09.355Z,3.53
2017-11-28T10:29:36.930Z,4.85
2017-11-28T10:32:04.492Z,4.57
2017-11-28T10:34:32.034Z,4.32
2017-11-28T10:36:59.565Z,3.85
2017-11-28T10:39:27.884Z,4.05
2017-11-28T10:41:55.425Z,4.25
2017-11-28T10:44:22.962Z,3.25
2017-11-28T10:46:51.335Z,3.50
2017-11-28T10:49:19.648Z,3.78
2017-11-28T10:51:47.164Z,3.40
2017-11-28T10:54:15.531Z,4.03
2017-11-28T10:56:43.159Z,4.30
2017-11-28T10:59:10.712Z,3.35
2017-11-28T11:01:38.275Z,3.40
2017-11-28T11:04:06.011Z,3.72
2017-11-28T11:06:34.290Z,3.55
2017-11-28T11:09:01.836Z,4.10
2017-11-28T11:11:30.137Z,3.97
2017-11-28T11:13:58.028Z,3.80
2017-11-28T11:16:25.785Z,3.40
2017-11-28T11:18:53.346Z,4.07
2017-11-28T11:21:20.847Z,3.70
2017-11-28T11:23:49.287Z,3.55
2017-11-28T11:26:16.839Z,3.28
2017-11-28T11:28:44.359Z,3.12
2017-11-28T11:31:12.649Z,3.65
2017-11-28T11:33:40.944Z,4.10
2017-11-28T11:36:08.492Z,4.03
2017-11-28T11:38:36.083Z,4.05
2017-11-28T11:41:03.608Z,2.80
2017-11-28T11:43:31.176Z,2.87
2017-11-28T11:45:58.754Z,3.58
2017-11-28T11:48:26.293Z,3.50
2017-11-28T11:50:53.881Z,4.07
2017-11-28T11:53:21.442Z,3.30
2017-11-28T11:55:49.153Z,3.47
2017-11-28T11:58:17.486Z,3.60
2017-11-28T12:00:45.072Z,3.35
2017-11-28T12:03:12.623Z,3.70
2017-11-28T12:05:40.154Z,2.67
2017-11-28T12:08:07.707Z,2.90
2017-11-28T12:10:35.232Z,3.95
2017-11-28T12:13:03.527Z,3.28
2017-11-28T12:15:31.137Z,5.15
2017-11-28T12:17:58.670Z,3.90
2017-11-28T12:20:26.209Z,4.68
2017-11-28T12:22:53.735Z,4.15
2017-11-28T12:25:21.285Z,5.10
2017-11-28T12:27:48.839Z,4.47
2017-11-28T12:30:16.398Z,4.05
2017-11-28T12:32:43.925Z,5.32
2017-11-28T12:35:11.431Z,3.45
2017-11-28T12:37:39.777Z,3.30
2017-11-28T12:40:07.302Z,3.30
2017-11-28T12:42:34.868Z,2.67
2017-11-28T12:45:02.427Z,3.30
2017-11-28T12:47:29.960Z,3.60
2017-11-28T12:49:58.223Z,2.83
2017-11-28T12:52:25.759Z,2.70
2017-11-28T12:54:53.262Z,3.20
2017-11-28T12:57:21.540Z,3.25
2017-11-28T12:59:49.859Z,3.25
2017-11-28T13:02:17.370Z,4.10
2017-11-28T13:04:45.685Z,3.12
2017-11-28T13:07:13.288Z,3.15
2017-11-28T13:09:40.797Z,3.83
2017-11-28T13:12:08.365Z,4.80
2017-11-28T13:14:35.908Z,4.93
2017-11-28T13:17:03.424Z,3.33
2017-11-28T13:19:30.973Z,3.33
2017-11-28T13:21:58.495Z,3.00
2017-11-28T13:24:26.195Z,5.10
2017-11-28T13:26:53.767Z,3.97
2017-11-28T13:29:23.146Z,3.87
2017-11-28T13:31:50.815Z,3.20
2017-11-28T13:34:18.380Z,2.90
2017-11-28T13:36:46.019Z,2.65
2017-11-28T13:39:13.588Z,2.72
2017-11-28T13:41:41.124Z,2.65
2017-11-28T13:44:08.660Z,2.50
2017-11-28T13:46:36.927Z,2.60
2017-11-28T13:49:05.209Z,3.12
2017-11-28T13:51:33.563Z,2.35
2017-11-28T13:54:01.080Z,2.92
2017-11-28T13:56:28.641Z,3.10
2017-11-28T13:58:56.192Z,2.45
2017-11-28T14:01:23.732Z,2.33
2017-11-28T14:03:51.994Z,2.10
2017-11-28T14:06:20.322Z,2.60
2017-11-28T14:08:47.857Z,2.90
2017-11-28T14:11:15.360Z,2.45
2017-11-28T14:13:42.992Z,3.40
2017-11-28T14:16:10.507Z,3.80
2017-11-28T14:18:38.783Z,3.00
2017-11-28T14:21:21.963Z,3.55
2017-11-28T14:23:55.218Z,2.95
2017-11-28T14:26:28.297Z,3.12
2017-11-28T14:28:56.583Z,2.55
2017-11-28T14:31:30.663Z,2.42
2017-11-28T14:33:58.211Z,2.80
2017-11-28T14:39:32.179Z,3.15
2017-11-28T14:42:18.346Z,1.95
2017-11-28T14:48:08.236Z,2.08
2017-11-28T14:50:41.303Z,1.75
2017-11-28T14:53:08.859Z,2.30
2017-11-28T14:55:38.905Z,2.58
2017-11-28T15:01:16.970Z,2.20
2017-11-28T15:07:05.885Z,2.20
2017-11-28T15:09:52.278Z,2.35
2017-11-28T15:15:50.670Z,2.30
2017-11-28T15:18:36.926Z,3.08
2017-11-28T15:21:07.246Z,2.55
2017-11-28T15:23:40.487Z,2.03
2017-11-28T15:26:13.936Z,2.47
2017-11-28T15:28:41.454Z,2.10
2017-11-28T15:31:09.036Z,2.00
2017-11-28T15:33:36.579Z,2.95
2017-11-28T15:36:04.883Z,2.67
2017-11-28T15:38:32.371Z,2.60
2017-11-28T15:40:59.896Z,1.75
2017-11-28T15:43:27.412Z,2.40
2017-11-28T15:45:54.928Z,2.87
2017-11-28T15:48:22.479Z,2.30
2017-11-28T15:50:49.991Z,2.60
2017-11-28T15:53:17.589Z,2.17
2017-11-28T15:55:45.132Z,2.97
2017-11-28T15:58:12.730Z,2.85
2017-11-28T16:00:40.230Z,2.50
2017-11-28T16:03:07.817Z,2.42
2017-11-28T16:05:35.362Z,2.05
2017-11-28T16:08:02.929Z,2.55
2017-11-28T16:10:30.480Z,2.22
2017-11-28T16:12:58.064Z,1.95
2017-11-28T16:15:25.564Z,2.03
2017-11-28T16:17:53.885Z,2.05
2017-11-28T16:20:21.417Z,2.45
2017-11-28T16:22:49.742Z,2.97
2017-11-28T16:25:17.327Z,1.62
2017-11-28T16:27:44.854Z,2.15
2017-11-28T16:30:12.367Z,2.67
2017-11-28T16:32:40.672Z,1.85
2017-11-28T16:35:08.199Z,2.15
2017-11-28T16:37:36.729Z,2.58
2017-11-28T16:40:04.283Z,3.37
2017-11-28T16:42:31.838Z,2.37
2017-11-28T16:44:59.376Z,2.50
2017-11-28T16:47:26.921Z,2.28
2017-11-28T16:49:55.274Z,2.72
2017-11-28T16:52:22.796Z,3.15
2017-11-28T16:54:50.323Z,2.85
2017-11-28T16:57:18.639Z,3.17
2017-11-28T16:59:46.180Z,4.07
2017-11-28T17:02:13.759Z,2.60
2017-11-28T17:04:41.281Z,4.12
2017-11-28T17:07:08.858Z,3.45
2017-11-28T17:09:36.404Z,2.72
2017-11-28T17:12:03.976Z,3.25
2017-11-28T17:14:31.496Z,2.80
2017-11-28T17:16:59.075Z,4.03
2017-11-28T17:19:27.494Z,2.85
2017-11-28T17:21:55.044Z,2.40
2017-11-28T17:24:22.596Z,2.70
2017-11-28T17:26:50.154Z,3.28
2017-11-28T17:29:17.678Z,3.92
2017-11-28T17:31:45.277Z,4.68
2017-11-28T17:34:12.810Z,4.93
2017-11-28T17:36:41.132Z,5.97
2017-11-28T17:39:08.793Z,7.95
2017-11-28T17:41:36.335Z,9.07
2017-11-28T17:44:03.883Z,8.57
2017-11-28T17:46:32.206Z,4.62
2017-11-28T17:48:59.800Z,5.28
2017-11-28T17:51:28.110Z,3.35
2017-11-28T17:53:57.332Z,3.90
2017-11-28T17:56:25.868Z,3.67
2017-11-28T17:58:54.205Z,3.20
2017-11-28T18:01:21.791Z,3.05
2017-11-28T18:03:49.408Z,3.30
2017-11-28T18:06:16.961Z,4.53
2017-11-28T18:08:44.567Z,3.83
2017-11-28T18:11:12.072Z,2.58
2017-11-28T18:13:39.611Z,3.40
2017-11-28T18:16:07.984Z,3.78
2017-11-28T18:18:36.371Z,4.40
2017-11-28T18:21:04.918Z,4.20
2017-11-28T18:23:32.512Z,3.65
2017-11-28T18:26:00.857Z,4.43
2017-11-28T18:28:28.363Z,5.07
2017-11-28T18:30:55.906Z,5.55
2017-11-28T18:33:24.199Z,5.00
2017-11-28T18:35:51.729Z,4.07
2017-11-28T18:38:20.031Z,6.53
2017-11-28T18:40:48.357Z,5.65
2017-11-28T18:43:15.935Z,5.35
2017-11-28T18:45:43.491Z,4.72
2017-11-28T18:48:11.045Z,5.25
2017-11-28T18:50:38.598Z,6.60
2017-11-28T18:53:06.134Z,7.47
2017-11-28T18:55:33.700Z,7.20
2017-11-28T18:58:01.272Z,7.82
2017-11-28T19:00:28.831Z,9.60
2017-11-28T19:02:56.400Z,10.82
2017-11-28T19:05:23.961Z,7.22
2017-11-28T19:07:51.512Z,13.80
2017-11-28T19:10:19.019Z,9.27
2017-11-28T19:12:47.539Z,6.55
2017-11-28T19:15:15.104Z,8.70
2017-11-28T19:17:42.658Z,6.20
2017-11-28T19:20:10.467Z,7.30
2017-11-28T19:22:38.855Z,6.22
2017-11-28T19:25:06.967Z,6.70
2017-11-28T19:27:34.636Z,7.07
2017-11-28T19:30:02.274Z,6.45
2017-11-28T19:32:29.845Z,5.50
2017-11-28T19:34:58.396Z,5.80
2017-11-28T19:37:26.643Z,4.75
2017-11-28T19:39:54.231Z,5.10
2017-11-28T19:42:22.597Z,5.97
2017-11-28T19:44:50.474Z,6.50
2017-11-28T19:47:19.076Z,4.50
2017-11-28T19:49:47.748Z,8.73
2017-11-28T19:52:15.809Z,5.47
2017-11-28T19:54:45.444Z,4.12
2017-11-28T19:57:13.873Z,5.03
2017-11-28T19:59:41.559Z,4.55
2017-11-28T20:02:10.099Z,4.70
2017-11-28T20:04:37.874Z,5.03
2017-11-28T20:07:05.388Z,5.40
2017-11-28T20:09:33.718Z,4.45
2017-11-28T20:12:01.340Z,5.82
2017-11-28T20:14:28.953Z,4.62
2017-11-28T20:16:56.493Z,4.35
2017-11-28T20:19:24.670Z,21.27
2017-11-28T20:21:52.235Z,22.75
2017-11-28T20:24:19.795Z,7.35
2017-11-28T20:26:47.337Z,5.43
2017-11-28T20:29:14.894Z,5.43
2017-11-28T20:31:42.420Z,6.60
2017-11-28T20:34:10.738Z,5.60
2017-11-28T20:36:38.341Z,5.32
2017-11-28T20:39:06.675Z,5.25
2017-11-28T20:41:34.238Z,5.80
2017-11-28T20:44:01.814Z,5.75
2017-11-28T20:46:29.371Z,5.03
2017-11-28T20:49:02.515Z,4.43
2017-11-28T20:51:30.027Z,5.32
2017-11-28T20:53:57.590Z,11.35
2017-11-28T20:56:25.118Z,5.20
2017-11-28T20:58:52.686Z,5.70
2017-11-28T21:01:20.189Z,5.70
2017-11-28T21:03:48.488Z,5.12
2017-11-28T21:06:16.037Z,6.22
2017-11-28T21:08:43.740Z,6.30
2017-11-28T21:11:11.445Z,5.45
2017-11-28T21:13:39.196Z,4.62
2017-11-28T21:16:07.057Z,4.20
2017-11-28T21:18:34.667Z,5.05
2017-11-28T21:21:02.244Z,5.07
2017-11-28T21:23:29.741Z,4.28
2017-11-28T21:25:57.283Z,5.97
2017-11-28T21:28:24.791Z,5.45
2017-11-28T21:30:53.063Z,5.93
2017-11-28T21:33:21.433Z,6.45
2017-11-28T21:35:49.740Z,8.30
2017-11-28T21:38:17.402Z,6.70
2017-11-28T21:40:44.979Z,6.05
2017-11-28T21:43:12.535Z,6.45
2017-11-28T21:45:40.101Z,6.53
2017-11-28T21:48:07.697Z,6.03
2017-11-28T21:50:35.312Z,6.12
2017-11-28T21:53:02.882Z,5.93
2017-11-28T21:55:30.459Z,5.15
2017-11-28T21:57:57.998Z,5.60
2017-11-28T22:00:25.520Z,5.90
2017-11-28T22:02:53.080Z,5.75
2017-11-28T22:05:21.414Z,6.97
2017-11-28T22:07:49.010Z,5.68
2017-11-28T22:10:17.349Z,5.05
2017-11-28T22:12:44.871Z,7.03
2017-11-28T22:15:13.147Z,6.65
2017-11-28T22:17:40.708Z,7.70
2017-11-28T22:20:08.201Z,7.22
2017-11-28T22:22:35.756Z,8.27
2017-11-28T22:25:03.310Z,8.10
2017-11-28T22:27:30.853Z,7.50
2017-11-28T22:29:58.366Z,6.60
2017-11-28T22:32:25.903Z,7.95
2017-11-28T22:34:53.431Z,8.65
2017-11-28T22:37:20.970Z,10.18
2017-11-28T22:39:49.263Z,8.55
2017-11-28T22:42:16.847Z,8.80
2017-11-28T22:44:44.371Z,9.82
2017-11-28T22:47:12.674Z,9.90
2017-11-28T22:49:40.162Z,9.63
2017-11-28T22:52:07.662Z,10.07
2017-11-28T22:54:35.948Z,14.57
2017-11-28T22:57:03.441Z,8.00
2017-11-28T22:59:30.990Z,26.20
2017-11-28T23:01:58.508Z,8.18
2017-11-28T23:04:26.770Z,8.25
2017-11-28T23:06:54.246Z,6.97
2017-11-28T23:09:22.517Z,8.02
2017-11-28T23:11:50.766Z,6.93
2017-11-28T23:14:29.977Z,6.62
2017-11-28T23:16:57.458Z,6.07
2017-11-28T23:19:24.952Z,6.50
2017-11-28T23:21:53.247Z,5.07
2017-11-28T23:24:20.730Z,4.85
2017-11-28T23:26:48.216Z,4.55
2017-11-28T23:29:15.764Z,5.12
2017-11-28T23:31:43.330Z,4.95
2017-11-28T23:34:10.819Z,4.07
2017-11-28T23:36:39.203Z,3.97
2017-11-28T23:39:07.458Z,4.20
2017-11-28T23:41:34.973Z,10.10
2017-11-28T23:44:02.491Z,4.18
2017-11-28T23:46:30.800Z,4.10
2017-11-28T23:48:58.286Z,4.05
2017-11-28T23:51:25.802Z,12.95
2017-11-28T23:53:53.279Z,4.93
2017-11-28T23:56:20.771Z,5.05
2017-11-28T23:58:48.287Z,3.25
